Time;durP1;ratioP1;P1;durP2;ratioP2;P2;SDS_P1;SDS_P2;PMS_P1;PMS_P2;Temp;Humidity;BMP_temperature;BMP_pressure;BME280_temperature;BME280_humidity;BME280_pressure;Samples;Min_cycle;Max_cycle;Signal;HPM_P1;HPM_P2
2023/04/11 04:02:57;;;;;;;24.00;12.13;;;;;;;4.89;100.00;100440.72;5906027;28;20147;-87
2023/04/11 04:06:01;;;;;;;23.87;12.57;;;;;;;5.00;100.00;100439.72;5277708;33;34723;-88
2023/04/11 04:09:04;;;;;;;25.55;11.82;;;;;;;4.98;100.00;100439.06;5290762;33;33476;-88
2023/04/11 04:12:09;;;;;;;21.77;12.63;;;;;;;4.99;100.00;100435.38;5291155;33;33794;-87
2023/04/11 04:15:13;;;;;;;25.00;13.55;;;;;;;4.91;100.00;100435.25;5266676;33;33927;-87
2023/04/11 04:18:17;;;;;;;22.50;12.57;;;;;;;4.85;100.00;100439.31;5264782;33;34758;-87
2023/04/11 04:21:20;;;;;;;24.77;13.40;;;;;;;4.88;100.00;100431.03;5292863;33;33929;-87
2023/04/11 04:24:25;;;;;;;23.98;13.15;;;;;;;4.82;100.00;100430.75;5288118;33;33942;-86
2023/04/11 04:27:28;;;;;;;21.85;12.88;;;;;;;4.78;100.00;100435.53;5266470;33;34882;-87
2023/04/11 04:30:36;;;;;;;24.42;13.50;;;;;;;4.77;100.00;100437.34;5290742;33;33869;-87
2023/04/11 04:33:45;;;;;;;25.88;13.73;;;;;;;4.78;100.00;100433.69;5268173;33;34307;-87
2023/04/11 04:36:48;;;;;;;22.08;13.85;;;;;;;4.81;100.00;100432.59;5282814;33;34255;-86
2023/04/11 04:39:54;;;;;;;28.17;13.32;;;;;;;4.88;100.00;100444.37;5281385;33;34431;-87
2023/04/11 04:42:58;;;;;;;26.52;13.68;;;;;;;5.15;100.00;100443.69;5294640;33;33663;-87
2023/04/11 04:46:04;;;;;;;25.88;13.65;;;;;;;5.16;100.00;100447.19;5268927;33;33297;-87
2023/04/11 04:49:08;;;;;;;25.33;13.68;;;;;;;5.26;100.00;100439.16;5268264;33;35329;-87
2023/04/11 04:52:14;;;;;;;26.75;14.32;;;;;;;5.34;100.00;100431.28;5290872;33;35233;-87
2023/04/11 04:55:17;;;;;;;27.20;13.52;;;;;;;5.41;100.00;100438.59;5290967;33;33987;-87
2023/04/11 04:58:23;;;;;;;27.95;13.75;;;;;;;5.58;100.00;100431.66;5290468;33;33901;-87
2023/04/11 05:01:26;;;;;;;23.90;12.45;;;;;;;5.79;100.00;100431.50;5277147;33;33879;-87
2023/04/11 05:04:33;;;;;;;26.30;13.48;;;;;;;5.93;100.00;100427.50;5290813;33;33796;-87
2023/04/11 05:07:37;;;;;;;23.52;13.68;;;;;;;6.11;100.00;100428.44;5295575;33;34034;-87
2023/04/11 05:10:40;;;;;;;24.48;13.90;;;;;;;6.36;100.00;100429.56;5266766;33;34278;-87
2023/04/11 05:13:45;;;;;;;24.45;12.68;;;;;;;6.49;100.00;100423.87;5275462;33;34623;-89
2023/04/11 05:16:48;;;;;;;26.50;12.25;;;;;;;6.80;100.00;100420.84;5276467;33;35250;-90
2023/04/11 05:19:51;;;;;;;20.85;11.52;;;;;;;6.95;100.00;100410.44;5289394;33;34020;-92
2023/04/11 05:22:54;;;;;;;21.83;12.90;;;;;;;7.24;100.00;100404.81;5289922;33;34790;-90
2023/04/11 05:25:57;;;;;;;23.38;12.23;;;;;;;7.32;100.00;100407.56;5258478;33;33607;-87
2023/04/11 05:29:00;;;;;;;22.17;10.88;;;;;;;7.60;100.00;100410.94;5259480;33;34142;-87
2023/04/11 05:32:04;;;;;;;21.95;12.20;;;;;;;7.84;100.00;100407.56;5260023;33;33744;-87
2023/04/11 05:35:08;;;;;;;16.52;10.40;;;;;;;8.03;100.00;100397.59;5272026;33;34165;-87
2023/04/11 05:38:12;;;;;;;21.15;12.07;;;;;;;8.15;100.00;100402.50;5274441;33;33683;-87
2023/04/11 05:41:15;;;;;;;23.48;12.63;;;;;;;8.39;100.00;100399.13;5261581;33;34002;-87
2023/04/11 05:44:18;;;;;;;25.45;12.20;;;;;;;8.39;100.00;100399.13;5271245;33;33866;-87
2023/04/11 05:47:22;;;;;;;20.80;12.00;;;;;;;8.49;100.00;100398.12;5275665;33;33456;-87
2023/04/11 05:50:25;;;;;;;21.25;12.00;;;;;;;8.53;100.00;100400.31;5276363;33;34809;-87
2023/04/11 05:53:28;;;;;;;20.35;11.52;;;;;;;8.69;100.00;100396.84;5285035;33;35574;-87
2023/04/11 05:56:31;;;;;;;19.87;11.82;;;;;;;8.86;100.00;100389.63;5289437;33;34023;-88
2023/04/11 05:59:35;;;;;;;21.58;12.05;;;;;;;9.03;100.00;100382.44;5279858;33;33847;-88
2023/04/11 06:02:39;;;;;;;20.05;11.48;;;;;;;9.21;100.00;100379.56;5274439;33;33509;-88
2023/04/11 06:05:42;;;;;;;20.45;11.90;;;;;;;9.46;100.00;100381.22;5277323;33;33891;-87
2023/04/11 06:08:45;;;;;;;19.02;11.35;;;;;;;9.70;100.00;100376.81;5279589;33;34887;-88
2023/04/11 06:11:48;;;;;;;18.92;11.77;;;;;;;9.77;100.00;100369.75;5266890;33;33611;-88
2023/04/11 06:14:50;;;;;;;21.05;12.15;;;;;;;9.95;100.00;100366.81;5264008;33;34017;-88
2023/04/11 06:17:53;;;;;;;20.08;11.40;;;;;;;10.12;100.00;100367.56;5259191;33;33561;-88
2023/04/11 06:20:56;;;;;;;22.08;12.73;;;;;;;10.17;100.00;100362.50;5290690;33;33782;-88
2023/04/11 06:24:08;;;;;;;21.25;12.15;;;;;;;10.16;100.00;100366.22;5289101;33;33522;-87
2023/04/11 06:27:10;;;;;;;19.83;11.57;;;;;;;10.08;100.00;100364.41;5277187;33;33399;-87
2023/04/11 06:30:14;;;;;;;20.90;11.88;;;;;;;10.13;100.00;100362.03;5278517;33;34964;-87
2023/04/11 06:33:17;;;;;;;19.33;11.57;;;;;;;10.17;100.00;100362.50;5283954;33;33537;-87
2023/04/11 06:36:20;;;;;;;20.17;11.32;;;;;;;10.36;100.00;100351.34;5259443;33;34240;-88
2023/04/11 06:39:23;;;;;;;21.77;11.40;;;;;;;10.50;100.00;100351.59;5272274;33;34860;-87
2023/04/11 06:42:26;;;;;;;19.08;10.80;;;;;;;10.54;100.00;100350.22;5288729;28;33502;-86
2023/04/11 06:45:29;;;;;;;16.05;10.25;;;;;;;10.59;100.00;100359.44;5264751;33;33846;-88
2023/04/11 06:48:33;;;;;;;15.23;9.88;;;;;;;10.88;100.00;100353.34;5279732;33;34097;-88
2023/04/11 06:51:36;;;;;;;19.95;9.90;;;;;;;11.03;99.75;100347.19;5307020;28;34760;-88
2023/04/11 06:54:39;;;;;;;17.62;10.02;;;;;;;11.05;100.00;100350.50;5288149;33;33929;-88
2023/04/11 06:57:43;;;;;;;17.45;10.05;;;;;;;11.13;100.00;100337.81;5322659;28;34486;-88
2023/04/11 07:00:46;;;;;;;15.70;10.52;;;;;;;11.26;98.20;100337.19;5295319;33;33468;-89
2023/04/11 07:03:48;;;;;;;20.08;11.30;;;;;;;11.38;100.00;100334.88;5300740;28;34058;-88
2023/04/11 07:06:52;;;;;;;16.67;10.98;;;;;;;11.62;99.60;100346.44;5263984;33;34839;-88
2023/04/11 07:09:54;;;;;;;21.15;10.85;;;;;;;11.62;98.69;100339.19;5274773;33;33699;-88
2023/04/11 07:12:57;;;;;;;22.58;12.73;;;;;;;11.96;95.50;100341.34;5274341;33;33795;-88
2023/04/11 07:16:00;;;;;;;22.10;12.43;;;;;;;12.00;97.36;100344.50;5267016;33;33591;-88
2023/04/11 07:19:03;;;;;;;19.25;12.25;;;;;;;12.22;95.18;100324.63;5272326;33;33446;-88
2023/04/11 07:22:06;;;;;;;20.70;13.35;;;;;;;12.48;93.84;100321.38;5249021;33;33921;-87
2023/04/11 07:25:09;;;;;;;21.35;12.93;;;;;;;12.89;92.39;100314.50;5271442;33;34424;-88
2023/04/11 07:28:12;;;;;;;24.55;12.48;;;;;;;13.51;86.51;100321.03;5272922;33;34534;-88
2023/04/11 07:31:18;;;;;;;19.35;12.30;;;;;;;14.14;84.01;100321.75;5261181;33;35137;-88
2023/04/11 07:34:21;;;;;;;22.62;12.55;;;;;;;14.56;82.01;100321.69;5275611;33;35379;-91
2023/04/11 07:37:25;;;;;;;20.90;13.00;;;;;;;14.40;79.47;100318.31;5256431;33;35006;-92
2023/04/11 07:40:30;;;;;;;19.33;12.35;;;;;;;14.25;82.67;100321.19;5271394;33;34478;-89
2023/04/11 07:43:33;;;;;;;19.35;12.77;;;;;;;14.50;81.23;100315.19;5285548;33;34210;-88
2023/04/11 07:46:35;;;;;;;20.88;13.07;;;;;;;14.60;81.08;100317.56;5262001;33;33811;-88
2023/04/11 07:49:38;;;;;;;18.27;12.30;;;;;;;14.38;77.50;100322.25;5286273;33;34439;-86
2023/04/11 07:52:41;;;;;;;19.85;12.80;;;;;;;14.36;79.40;100321.63;5274540;33;33832;-86
2023/04/11 07:55:44;;;;;;;19.30;12.13;;;;;;;14.59;77.26;100313.16;5272734;33;33775;-86
2023/04/11 07:58:46;;;;;;;19.12;11.40;;;;;;;14.78;78.83;100298.00;5247448;33;34142;-86
2023/04/11 08:02:00;;;;;;;12.05;8.05;;;;;;;14.90;77.28;100305.28;5261995;33;34590;-87
2023/04/11 08:05:03;;;;;;;10.15;6.57;;;;;;;14.98;73.65;100295.28;5272741;33;35593;-86
2023/04/11 08:08:06;;;;;;;9.82;6.15;;;;;;;14.93;72.54;100288.59;5261727;33;34928;-86
2023/04/11 08:11:09;;;;;;;9.25;6.20;;;;;;;14.86;73.37;100278.78;5273154;33;34850;-86
2023/04/11 08:14:12;;;;;;;10.93;6.43;;;;;;;14.67;74.18;100286.72;5249257;33;33901;-86
2023/04/11 08:17:16;;;;;;;12.30;7.00;;;;;;;15.01;72.80;100289.44;5271661;33;34907;-86
2023/04/11 08:20:30;;;;;;;13.25;8.50;;;;;;;14.81;73.00;100287.56;5262351;33;33860;-86
2023/04/11 08:23:33;;;;;;;13.57;8.68;;;;;;;14.95;71.95;100275.69;5275653;33;34633;-87
2023/04/11 08:26:35;;;;;;;16.10;9.85;;;;;;;14.86;72.60;100276.94;5262004;33;33834;-86
2023/04/11 08:29:39;;;;;;;22.67;10.98;;;;;;;14.90;75.06;100264.63;5267148;33;34049;-86
2023/04/11 08:32:42;;;;;;;16.27;10.32;;;;;;;14.68;72.94;100265.84;5247276;33;33685;-87
2023/04/11 08:35:45;;;;;;;13.57;9.10;;;;;;;14.60;75.37;100253.38;5263986;33;34669;-87
2023/04/11 08:38:47;;;;;;;17.98;10.05;;;;;;;14.88;75.57;100242.31;5242954;33;34909;-87
2023/04/11 08:41:51;;;;;;;15.48;9.57;;;;;;;14.97;74.62;100240.22;5255216;33;33505;-87
2023/04/11 08:44:56;;;;;;;16.20;9.30;;;;;;;15.26;71.14;100236.22;5248320;33;33461;-87
2023/04/11 08:47:58;;;;;;;15.73;10.32;;;;;;;15.54;69.20;100221.53;5272639;33;33844;-87
2023/04/11 08:51:01;;;;;;;14.50;9.68;;;;;;;15.67;68.91;100209.78;5248698;33;33624;-87
2023/04/11 08:54:05;;;;;;;15.65;9.23;;;;;;;15.29;71.22;100214.09;5264887;33;34813;-87
2023/04/11 08:57:08;;;;;;;15.38;8.52;;;;;;;15.26;71.66;100211.78;5276761;33;33996;-86
2023/04/11 09:00:13;;;;;;;12.55;8.43;;;;;;;15.45;69.30;100210.09;5266837;33;34054;-87
2023/04/11 09:03:17;;;;;;;13.93;8.02;;;;;;;15.11;69.94;100197.66;5266396;33;35383;-87
2023/04/11 09:06:21;;;;;;;12.75;8.38;;;;;;;15.62;70.66;100184.13;5255216;33;35406;-86
2023/04/11 09:09:29;;;;;;;12.52;8.32;;;;;;;15.57;67.81;100189.37;5264451;33;34344;-87
2023/04/11 09:12:34;;;;;;;14.77;9.30;;;;;;;15.53;67.82;100190.88;5266423;33;35058;-86
2023/04/11 09:15:37;;;;;;;16.90;9.55;;;;;;;15.48;69.92;100198.81;5268395;33;34942;-87
2023/04/11 09:18:45;;;;;;;17.40;9.90;;;;;;;15.67;68.80;100196.22;5255977;33;33975;-87
2023/04/11 09:21:49;;;;;;;14.38;9.52;;;;;;;15.58;68.15;100199.16;5273394;33;35275;-87
2023/04/11 09:25:02;;;;;;;17.98;10.15;;;;;;;15.70;68.76;100182.25;5283994;33;34327;-90
2023/04/11 09:28:08;;;;;;;17.40;10.82;;;;;;;16.20;69.03;100179.66;5269037;33;34470;-87
2023/04/11 09:31:12;;;;;;;15.88;10.73;;;;;;;16.35;67.55;100174.75;5280700;33;33982;-87
2023/04/11 09:34:22;;;;;;;18.80;10.98;;;;;;;15.95;68.16;100166.88;5283327;33;34793;-87
2023/04/11 09:37:25;;;;;;;16.12;10.60;;;;;;;15.90;71.27;100157.72;5281768;33;34642;-88
2023/04/11 09:40:30;;;;;;;16.62;10.82;;;;;;;16.00;68.66;100153.47;5270207;33;34443;-87
2023/04/11 09:43:51;;;;;;;21.12;11.00;;;;;;;15.92;69.34;100153.72;5282284;33;34357;-87
2023/04/11 09:46:58;;;;;;;16.73;10.25;;;;;;;15.42;71.22;100153.53;5270507;33;34128;-87
2023/04/11 09:50:02;;;;;;;15.82;10.32;;;;;;;15.60;70.77;100150.94;5284969;33;34217;-87
2023/04/11 09:53:05;;;;;;;18.08;10.93;;;;;;;15.69;72.06;100151.56;5264200;33;34185;-86
2023/04/11 09:56:09;;;;;;;16.00;10.55;;;;;;;16.17;71.00;100140.19;5260250;33;34175;-87
2023/04/11 09:59:14;;;;;;;16.08;10.10;;;;;;;16.21;68.55;100149.56;5242229;33;150129;-88
2023/04/11 10:02:17;;;;;;;16.55;10.38;;;;;;;16.09;68.98;100138.59;5257174;33;33844;-87
2023/04/11 10:05:25;;;;;;;17.92;10.75;;;;;;;16.00;68.99;100137.19;5258529;33;34323;-87
2023/04/11 10:08:31;;;;;;;16.42;10.98;;;;;;;15.98;71.32;100127.59;5264037;33;34788;-88
2023/04/11 10:11:35;;;;;;;17.05;9.98;;;;;;;15.85;70.29;100123.06;5275192;33;34093;-86
2023/04/11 10:14:38;;;;;;;16.00;9.93;;;;;;;16.35;70.68;100116.84;5315406;28;35039;-88
2023/04/11 10:17:42;;;;;;;16.10;10.07;;;;;;;16.73;69.57;100119.41;5312629;33;34152;-88
2023/04/11 10:20:49;;;;;;;17.70;11.00;;;;;;;16.97;65.97;100124.03;5301751;33;34187;-87
2023/04/11 10:24:13;;;;;;;17.83;10.93;;;;;;;16.76;65.35;100119.84;5315795;33;36798;-87
2023/04/11 10:27:46;;;;;;;17.58;11.12;;;;;;;16.57;65.94;100112.69;5308098;33;33824;-88
2023/04/11 10:31:12;;;;;;;17.58;11.23;;;;;;;17.10;66.77;100098.53;5301804;33;33611;-88
2023/04/11 10:34:15;;;;;;;16.98;11.27;;;;;;;17.50;65.29;100092.59;5294379;33;33990;-88
2023/04/11 10:37:32;;;;;;;15.88;10.45;;;;;;;17.66;63.42;100074.78;5284001;33;34771;-88
2023/04/11 10:40:35;;;;;;;16.23;10.65;;;;;;;17.78;63.17;100072.94;5288042;33;33703;-87
2023/04/11 10:43:38;;;;;;;15.32;10.15;;;;;;;18.56;60.50;100069.12;5335797;28;33734;-86
2023/04/11 10:46:57;;;;;;;15.73;9.95;;;;;;;18.73;57.50;100060.25;5280814;33;33938;-87
2023/04/11 10:50:00;;;;;;;;;;;;;;;18.71;55.95;100062.38;5296268;33;33924;-87
2023/04/11 10:53:07;;;;;;;15.63;9.70;;;;;;;18.68;57.23;100051.94;5286992;33;35543;-87
2023/04/11 10:56:10;;;;;;;18.52;11.27;;;;;;;18.50;58.44;100044.72;5285949;33;33877;-87
2023/04/11 10:59:35;;;;;;;17.23;10.60;;;;;;;18.41;55.62;100052.44;5305493;33;34433;-87
2023/04/11 11:02:40;;;;;;;15.65;10.68;;;;;;;18.69;54.19;100043.53;5385700;28;35324;-87
2023/04/11 11:05:45;;;;;;;15.50;10.55;;;;;;;18.91;54.41;100035.56;5338150;28;35496;-87
2023/04/11 11:08:48;;;;;;;16.52;11.25;;;;;;;19.48;52.76;100032.03;5302209;33;31745;-87
2023/04/11 11:12:05;;;;;;;15.15;9.90;;;;;;;19.85;53.85;100023.41;5294772;33;34403;-88
2023/04/11 11:15:12;;;;;;;15.82;10.15;;;;;;;19.99;50.55;100027.47;5282494;33;34435;-85
2023/04/11 11:18:15;;;;;;;17.12;11.23;;;;;;;20.36;50.47;100013.31;5274060;33;33747;-86
2023/04/11 11:21:22;;;;;;;12.80;8.88;;;;;;;20.89;46.51;100016.50;5284553;33;35224;-85
2023/04/11 11:24:30;;;;;;;16.92;10.00;;;;;;;20.81;43.37;100006.81;5281755;33;34793;-90
2023/04/11 11:27:33;;;;;;;17.65;10.63;;;;;;;20.27;47.46;99998.38;5275207;33;35814;-92
2023/04/11 11:30:52;;;;;;;14.52;10.20;;;;;;;20.10;48.30;99998.41;5271994;33;34958;-86
2023/04/11 11:33:57;;;;;;;14.93;9.75;;;;;;;21.07;44.98;99991.53;5287813;33;34193;-86
2023/04/11 11:37:20;;;;;;;15.40;9.88;;;;;;;22.32;40.51;99985.00;5272232;33;33926;-86
2023/04/11 11:40:23;;;;;;;18.15;10.00;;;;;;;22.47;40.16;99978.78;5291831;33;34814;-87
2023/04/11 11:43:27;;;;;;;14.10;9.10;;;;;;;22.71;42.21;99976.41;5276853;33;35375;-86
2023/04/11 11:46:34;;;;;;;14.10;9.05;;;;;;;22.44;40.92;99984.78;5291456;33;33914;-86
2023/04/11 11:49:50;;;;;;;13.93;8.95;;;;;;;22.91;37.72;99979.25;5291582;33;33682;-86
2023/04/11 11:52:53;;;;;;;14.13;8.60;;;;;;;22.87;36.94;99981.69;5275881;33;34023;-86
2023/04/11 11:55:56;;;;;;;14.13;8.00;;;;;;;24.08;38.11;99978.59;5276957;33;33718;-86
2023/04/11 11:59:00;;;;;;;12.80;7.57;;;;;;;25.57;34.50;99967.81;5251351;33;34004;-87
2023/04/11 12:02:03;;;;;;;11.20;7.45;;;;;;;26.22;30.02;99960.06;5279396;33;34075;-87
2023/04/11 12:05:09;;;;;;;12.40;7.45;;;;;;;26.11;30.07;99961.25;5292976;33;33685;-87
2023/04/11 12:08:13;;;;;;;13.77;7.68;;;;;;;25.30;32.55;99960.81;5293471;33;33996;-87
2023/04/11 12:11:17;;;;;;;12.10;8.20;;;;;;;23.62;34.71;99956.59;5293163;33;33688;-86
2023/04/11 12:14:23;;;;;;;11.38;7.32;;;;;;;22.04;36.67;99956.81;5292369;33;33589;-87
2023/04/11 12:17:33;;;;;;;12.25;8.10;;;;;;;21.28;40.54;99956.97;5290545;33;34101;-87
2023/04/11 12:20:40;;;;;;;12.98;7.70;;;;;;;21.69;37.17;99960.09;5279819;33;34852;-87
2023/04/11 12:23:43;;;;;;;12.77;7.65;;;;;;;21.77;37.98;99953.34;5289056;33;34284;-87
2023/04/11 12:26:46;;;;;;;10.13;6.70;;;;;;;22.71;36.81;99959.94;5267418;33;33645;-87
2023/04/11 12:30:13;;;;;;;8.20;5.97;;;;;;;25.24;33.28;99958.38;5282574;33;34176;-87
2023/04/11 12:33:16;;;;;;;9.40;5.90;;;;;;;27.78;26.21;99955.75;5293872;33;34057;-91
2023/04/11 12:36:21;;;;;;;8.75;5.85;;;;;;;28.43;25.64;99957.66;5289219;33;34394;-91
2023/04/11 12:39:24;;;;;;;11.10;6.45;;;;;;;29.21;23.81;99944.66;5282463;33;33875;-88
2023/04/11 12:42:28;;;;;;;9.32;6.30;;;;;;;25.55;29.13;99947.97;5282678;33;33717;-89
2023/04/11 12:45:32;;;;;;;9.70;6.25;;;;;;;26.10;28.18;99931.22;5287987;33;34126;-87
2023/04/11 12:48:35;;;;;;;9.43;6.32;;;;;;;27.45;27.14;99930.03;5289311;33;33625;-87
2023/04/11 12:51:38;;;;;;;10.50;7.35;;;;;;;27.73;26.67;99923.47;5301338;33;33912;-87
2023/04/11 12:54:42;;;;;;;11.48;7.03;;;;;;;25.95;29.58;99932.19;5287499;33;33487;-88
2023/04/11 12:57:45;;;;;;;10.68;7.22;;;;;;;24.06;31.19;99925.78;5283030;33;34156;-88
2023/04/11 13:00:48;;;;;;;10.80;6.75;;;;;;;21.85;34.80;99920.78;5293189;33;34461;-87
2023/04/11 13:03:52;;;;;;;11.35;6.75;;;;;;;21.42;37.00;99913.59;5274080;33;33661;-87
2023/04/11 13:06:59;;;;;;;8.88;6.70;;;;;;;21.05;36.39;99914.31;5262306;33;33547;-87
2023/04/11 13:10:03;;;;;;;10.68;7.12;;;;;;;20.72;37.26;99901.66;5288746;33;34019;-87
2023/04/11 13:13:06;;;;;;;9.68;6.95;;;;;;;20.46;36.61;99904.03;5261728;33;34564;-86
2023/04/11 13:16:20;;;;;;;8.98;6.37;;;;;;;20.70;37.45;99895.59;5274593;33;34039;-86
2023/04/11 13:19:23;;;;;;;10.20;7.22;;;;;;;20.81;37.89;99886.44;5281657;33;34766;-86
2023/04/11 13:22:26;;;;;;;10.05;6.87;;;;;;;20.54;36.84;99875.47;5282798;33;34313;-86
2023/04/11 13:25:29;;;;;;;9.23;6.60;;;;;;;20.10;38.33;99887.19;5280071;33;34148;-86
2023/04/11 13:28:37;;;;;;;8.55;5.93;;;;;;;19.88;38.35;99878.94;5276292;33;34004;-86
2023/04/11 13:31:40;;;;;;;9.10;6.63;;;;;;;19.85;40.53;99873.97;5273788;33;34726;-86
2023/04/11 13:34:43;;;;;;;9.98;7.05;;;;;;;19.94;40.34;99877.13;5291962;33;33995;-86
2023/04/11 13:37:48;;;;;;;10.90;7.07;;;;;;;19.54;40.02;99878.16;5285404;33;33794;-86
2023/04/11 13:44:53;;;;;;;9.15;6.70;;;;;;;19.98;38.92;99864.63;5450243;28;20113;-85
2023/04/11 13:47:59;;;;;;;10.43;6.18;;;;;;;20.06;38.89;99858.69;5301359;33;34153;-85
2023/04/11 13:51:03;;;;;;;9.82;6.55;;;;;;;20.03;38.45;99851.00;5300144;33;34585;-85
2023/04/11 13:54:06;;;;;;;9.48;6.78;;;;;;;19.70;38.72;99850.00;5299001;33;34896;-85
2023/04/11 13:57:08;;;;;;;10.05;6.70;;;;;;;19.55;39.53;99862.59;5313206;33;34032;-85
2023/04/11 14:00:13;;;;;;;11.02;6.95;;;;;;;19.15;39.02;99852.66;5310720;33;33510;-86
2023/04/11 14:03:16;;;;;;;8.82;6.22;;;;;;;19.07;39.67;99845.72;5286698;33;34873;-86
2023/04/11 14:06:19;;;;;;;6.95;5.37;;;;;;;19.13;39.52;99847.47;5297348;33;33757;-86
2023/04/11 14:09:22;;;;;;;8.75;5.07;;;;;;;18.99;39.27;99851.56;5286481;33;34293;-90
2023/04/11 14:12:26;;;;;;;6.30;4.95;;;;;;;18.83;37.77;99845.00;5297581;33;34215;-90
2023/04/11 14:15:30;;;;;;;6.62;4.28;;;;;;;18.38;37.38;99843.03;5296820;33;36940;-91
2023/04/11 14:18:33;;;;;;;6.78;4.62;;;;;;;18.36;38.09;99846.00;5297798;33;34400;-87
2023/04/11 14:21:36;;;;;;;4.45;3.92;;;;;;;18.27;37.99;99850.19;5279044;33;34735;-87
2023/04/11 14:24:40;;;;;;;6.05;4.12;;;;;;;18.25;37.90;99852.34;5291849;33;34989;-87
2023/04/11 14:27:44;;;;;;;6.45;4.07;;;;;;;18.16;38.53;99852.94;5283868;33;34860;-86
2023/04/11 14:30:47;;;;;;;5.93;4.82;;;;;;;17.87;39.83;99863.75;5302353;33;33865;-87
2023/04/11 14:33:52;;;;;;;5.87;4.78;;;;;;;17.64;41.62;99864.59;5297752;33;34723;-87
2023/04/11 14:36:55;;;;;;;6.68;4.37;;;;;;;17.63;42.99;99874.62;5295405;33;33620;-88
2023/04/11 14:39:58;;;;;;;6.45;4.10;;;;;;;16.92;45.05;99881.84;5279433;33;35271;-87
2023/04/11 14:43:12;;;;;;;7.40;4.55;;;;;;;16.81;45.29;99888.06;5286215;33;33937;-87
2023/04/11 14:46:15;;;;;;;6.03;4.32;;;;;;;16.60;46.85;99894.81;5300781;33;35029;-87
2023/04/11 14:49:18;;;;;;;8.25;5.12;;;;;;;16.49;47.40;99893.69;5276760;33;34558;-87
2023/04/11 14:52:21;;;;;;;7.05;4.97;;;;;;;16.16;49.33;99893.25;5300586;33;32593;-87
2023/04/11 14:55:25;;;;;;;8.57;5.57;;;;;;;15.79;51.32;99901.37;5299051;33;33336;-87
2023/04/11 14:58:28;;;;;;;6.68;4.28;;;;;;;15.60;52.77;99901.31;5300326;33;33784;-88
2023/04/11 15:01:31;;;;;;;8.95;4.07;;;;;;;15.33;54.51;99899.88;5298944;33;35318;-87
2023/04/11 15:04:36;;;;;;;5.25;3.15;;;;;;;15.29;55.88;99910.31;5314589;33;34518;-87
2023/04/11 15:07:39;;;;;;;3.28;2.30;;;;;;;15.18;57.53;99909.16;5302285;33;34148;-87
2023/04/11 15:10:43;;;;;;;4.50;2.25;;;;;;;15.04;59.05;99913.00;5294547;33;34685;-87
2023/04/11 15:13:47;;;;;;;3.10;2.37;;;;;;;14.90;60.64;99914.97;5312564;33;34408;-88
2023/04/11 15:16:50;;;;;;;4.28;3.37;;;;;;;14.43;64.06;99913.50;5304681;33;34100;-87
2023/04/11 15:19:53;;;;;;;5.60;3.40;;;;;;;14.08;67.06;99919.22;5306006;33;34041;-87
2023/04/11 15:22:57;;;;;;;6.57;3.53;;;;;;;13.76;70.29;99924.47;5306068;33;35310;-87
2023/04/11 15:26:03;;;;;;;7.07;4.10;;;;;;;13.55;73.76;99922.00;5306163;33;34140;-87
2023/04/11 15:29:12;;;;;;;5.95;3.78;;;;;;;13.34;77.28;99920.34;5317527;33;34318;-87
2023/04/11 15:32:16;;;;;;;7.70;4.60;;;;;;;13.03;83.05;99929.00;5302942;33;34038;-87
2023/04/11 15:35:19;;;;;;;8.07;4.15;;;;;;;12.51;93.49;99938.59;5301046;33;34987;-87
2023/04/11 15:38:22;;;;;;;7.97;4.50;;;;;;;11.98;100.00;99945.38;5293469;33;34425;-87
2023/04/11 15:41:26;;;;;;;7.87;4.53;;;;;;;11.63;100.00;99943.62;5306480;33;34039;-88
2023/04/11 15:44:29;;;;;;;6.78;4.60;;;;;;;11.35;100.00;99945.28;5307823;33;34134;-87
2023/04/11 15:47:32;;;;;;;7.60;4.50;;;;;;;11.03;100.00;99940.41;5305257;33;33882;-87
2023/04/11 15:50:35;;;;;;;7.05;3.62;;;;;;;10.81;100.00;99947.63;5307018;33;34198;-88
